Flight Track Log - Related Links

Times and Time Zones

All times are in EDT time to prevent confusion due to time zone crossing. See the UAL6129 flight status page for this flight to view local times or setup timezone preferences in your user account.

Time Position Orientation Groundspeed Altitude Reporting Facility
EDT Latitude Longitude Course Direction KTS MPH feet Rate Location/Type
Fri 10:56:56 PM 42.0333 -87.9333 346° North 192 221 2,800  Level Chicago TRACON
Fri 10:57:56 PM 42.0833 -87.9167 14° North 227 261 4,800 1,339 Climbing Chicago TRACON
Fri 10:58:57 PM 42.1444 -87.8831 22° Northeast 263 303 5,500 1,721 Climbing Chicago Center
Fri 10:59:00 PM 42.3122 -88.0072 350° North  Level FlightAware Approximate
Fri 10:59:58 PM 42.2144 -87.8531 18° North 265 305 8,300  Level Chicago Center
Fri 11:00:00 PM 42.3975 -88.0404 340° North  Level FlightAware Approximate
Fri 11:00:59 PM 42.3025 -87.8353 North 270 311 11,200  Level Chicago Center
Fri 11:01:00 PM 42.4846 -88.0636 352° North  Level FlightAware Approximate
Fri 11:02:00 PM 42.5680 -88.1004 346° North  Level FlightAware Approximate
Fri 11:02:00 PM 42.3781 -87.8378 359° North 272 313 13,100  Level Chicago Center
Fri 11:03:01 PM 42.4586 -87.8403 359° North 285 328 14,900 1,426 Climbing Chicago Center
Fri 11:04:02 PM 42.5386 -87.8831 338° Northwest 313 360 16,000 1,033 Climbing Chicago Center
Fri 11:05:03 PM 42.6264 -87.9239 341° North 330 380 17,000 885 Climbing Chicago Center
Fri 11:06:04 PM 42.7181 -87.9664 341° North 344 396 17,800 492 Climbing Chicago Center
Fri 11:07:05 PM 42.8139 -88.0119 341° North 360 414 18,000 98 Climbing Chicago Center
Fri 11:08:06 PM 42.9183 -88.0603 341° North 390 449 18,000  Level Chicago Center
Fri 11:09:07 PM 43.0233 -88.1111 341° North 400 460 18,000  Level Chicago Center
Fri 11:10:07 PM 43.1303 -88.1617 341° North 404 465 18,000  Level Chicago Center
Fri 11:11:08 PM 43.2367 -88.2119 341° North 404 465 18,000  Level Chicago Center
Fri 11:12:09 PM 43.3586 -88.2706 341° North 400 460 18,000  Level Chicago Center
Fri 11:13:10 PM 43.4622 -88.3203 341° North 400 460 18,000  Level Chicago Center
Fri 11:14:11 PM 43.5647 -88.3697 341° North 398 458 18,000  Level Chicago Center
Fri 11:15:12 PM 43.6681 -88.4203 341° North 398 458 18,000 -148 Level Chicago Center
Fri 11:16:13 PM 43.7642 -88.4856 334° Northwest 390 449 17,700 -689 Descending Chicago Center
Fri 11:17:14 PM 43.8456 -88.5764 321° Northwest 378 435 16,600 -1,033 Descending Chicago Center
Fri 11:18:15 PM 43.9250 -88.6697 320° Northwest 374 430 15,600 -992 Descending Chicago Center
Fri 11:19:15 PM 44.0069 -88.7633 321° Northwest 380 437 14,600 -1,140 Descending Chicago Center
Fri 11:20:16 PM 44.1019 -88.8606 324° Northwest 358 412 13,300 -1,230 Descending Chicago Center
Fri 11:21:17 PM 44.1756 -88.9300 326° Northwest 323 372 12,100 -1,426 Descending Chicago Center
Fri 11:22:18 PM 44.2408 -88.9919 326° Northwest 297 342 10,400 -1,869 Descending Chicago Center
Fri 11:23:19 PM 44.3039 -89.0500 327° Northwest 277 319 8,300 -1,667 Descending Chicago Center
Fri 11:24:24 PM 44.3733 -89.1167 326° Northwest 276 318 6,900 -1,143 Descending Minneapolis Center
Fri 11:25:25 PM 44.4275 -89.1678 326° Northwest 249 287 5,900 -984 Descending Minneapolis Center
Fri 11:26:26 PM 44.4883 -89.2253 326° Northwest 253 291 4,900 -1,033 Descending Minneapolis Center
Fri 11:27:27 PM 44.5528 -89.2872 326° Northwest 269 310 3,800 -934 Descending Minneapolis Center
Fri 11:28:28 PM 44.6117 -89.3436 326° Northwest 267 307 3,000 -393 Descending Minneapolis Center
Fri 11:29:29 PM 44.6756 -89.4042 326° Northwest 266 306 3,000  Level Minneapolis Center
Fri 11:30:30 PM 44.7347 -89.4597 326° Northwest 235 270 3,000  Level Minneapolis Center
Fri 11:31:31 PM 44.7778 -89.5022 325° Northwest 201 231 3,000 -98 Level Minneapolis Center
Fri 11:32:32 PM 44.8000 -89.5464 305° West 136 157 2,800 -496 Descending Minneapolis Center
Fri 11:33:32 PM 44.7928 -89.6003 259° West 133 153 2,000 -694 Descending Minneapolis Center
Fri 11:34:33 PM 44.7836 -89.6514 256° West 135 155 1,400 -590 Descending Minneapolis Center

Login

Don't have an account? Register now (free) for customized features, flight alerts, and more!